Butts AAF (Fort Carson) Air Field
KFCS : now visible

Airfield :











YOU CAN JOIN US ON...

 
LOGIN :

Register | Disclaimer

   EN    FR    IT 

 









Legend :    VFR   Marginal VFR   IFR   Intensive IFR   Very Intensive IFR
Visi :
Ceiling :
>= 8 km
>= 3000ft
5 to 8 km
1000 to 3000 ft
1500m to 5 km
500 to 1000 ft
800 to 1500m
200 to 500 ft
< 800m
< 200 ft
Symbols :   Thunderstorms  Fog  Heavy snow  Heavy precipitations  Wind > 20 kt






- Airport Elevation : 5838 ft


KFCS - Butts AAF (Fort Carson) Air Field

CURRENT METAR :
  • 081958Z AUTO 14011KT 10SM CLR 33/M06 A3015 RMK AO2 SLP144 T03281058 $

EXPIRED METARs :
  • 081858Z AUTO 13013KT 10SM BKN140 32/M05 A3016 RMK AO2 SLP147 T03161052 $
  • 081758Z AUTO 14008KT 10SM OVC140 30/M03 A3018 RMK AO2 SLP151 T03041034 10304 20172 53003 $

TAF TAF KFCS
Valid from the 08 at 13:00 until the 09 at 19:00 UTC


081302Z 0813/0919 31009KT 9999 SKC QNH3014INS
BECMG 0818/0819 24009KT 9999 SCT100 QNH3010INS
TEMPO 0819/0901 27015G25KT
BECMG 0906/0907 33012KT 9999 SKC QNH3012INS
BECMG 0915/0916 26009KT 9999 SKC QNH3013INS TX33/0823Z TN14/0813Z
KZDV FIR / North America



MET'MAP, your aeronautical weather chart ! - Copyright ORBIFLY December 2007 - Disclaimer

ORBIFLY MET'MAP TEAM :

Programming & Development : Alexandra Zaïnal
Concept & original design : Baudouin d'Aumeries
Assistance for programming : Marc-Olivier Méhu
Technical & hardware support : Manuel Goepfert

Contact : metmap@orbifly.com




SOURCES & CREDITS :

   NOAA       Earth
Advisory